sensor_id;sensor_type;location;lat;lon;timestamp;P1;durP1;ratioP1;P2;durP2;ratioP2
43994;SDS011;51687;52.160;5.298;2022-12-11T00:02:01;88.05;;;38.20;;
43994;SDS011;51687;52.160;5.298;2022-12-11T00:04:30;94.22;;;42.30;;
43994;SDS011;51687;52.160;5.298;2022-12-11T00:06:57;91.00;;;40.97;;
43994;SDS011;51687;52.160;5.298;2022-12-11T00:09:23;91.68;;;42.50;;
43994;SDS011;51687;52.160;5.298;2022-12-11T00:11:50;94.90;;;43.63;;
43994;SDS011;51687;52.160;5.298;2022-12-11T00:14:17;97.30;;;42.60;;
43994;SDS011;51687;52.160;5.298;2022-12-11T00:16:43;88.20;;;41.55;;
43994;SDS011;51687;52.160;5.298;2022-12-11T00:21:39;93.05;;;42.35;;
43994;SDS011;51687;52.160;5.298;2022-12-11T00:24:05;97.68;;;44.00;;
43994;SDS011;51687;52.160;5.298;2022-12-11T00:26:32;95.97;;;43.42;;
43994;SDS011;51687;52.160;5.298;2022-12-11T00:28:59;90.72;;;44.33;;
43994;SDS011;51687;52.160;5.298;2022-12-11T00:31:26;93.95;;;44.92;;
43994;SDS011;51687;52.160;5.298;2022-12-11T00:33:52;103.85;;;45.03;;
43994;SDS011;51687;52.160;5.298;2022-12-11T00:36:21;96.55;;;43.70;;
43994;SDS011;51687;52.160;5.298;2022-12-11T00:38:49;96.88;;;43.60;;
43994;SDS011;51687;52.160;5.298;2022-12-11T00:41:17;105.30;;;45.63;;
43994;SDS011;51687;52.160;5.298;2022-12-11T00:43:44;94.85;;;43.92;;
43994;SDS011;51687;52.160;5.298;2022-12-11T00:46:12;102.35;;;46.08;;
43994;SDS011;51687;52.160;5.298;2022-12-11T00:48:39;103.07;;;45.78;;
43994;SDS011;51687;52.160;5.298;2022-12-11T00:51:06;93.75;;;44.03;;
43994;SDS011;51687;52.160;5.298;2022-12-11T00:53:33;94.53;;;44.10;;
43994;SDS011;51687;52.160;5.298;2022-12-11T00:56:00;93.57;;;42.28;;
43994;SDS011;51687;52.160;5.298;2022-12-11T00:58:27;103.47;;;47.78;;
43994;SDS011;51687;52.160;5.298;2022-12-11T01:00:53;95.10;;;45.53;;
43994;SDS011;51687;52.160;5.298;2022-12-11T01:03:20;100.63;;;45.35;;
43994;SDS011;51687;52.160;5.298;2022-12-11T01:05:55;100.28;;;45.10;;
43994;SDS011;51687;52.160;5.298;2022-12-11T01:08:22;108.80;;;45.42;;
43994;SDS011;51687;52.160;5.298;2022-12-11T01:10:49;104.60;;;47.63;;
43994;SDS011;51687;52.160;5.298;2022-12-11T01:13:16;106.45;;;48.67;;
43994;SDS011;51687;52.160;5.298;2022-12-11T01:15:43;122.55;;;47.70;;
43994;SDS011;51687;52.160;5.298;2022-12-11T01:18:11;108.20;;;50.20;;
43994;SDS011;51687;52.160;5.298;2022-12-11T01:20:39;111.38;;;49.17;;
43994;SDS011;51687;52.160;5.298;2022-12-11T01:23:09;115.40;;;49.80;;
43994;SDS011;51687;52.160;5.298;2022-12-11T01:25:38;105.30;;;48.97;;
43994;SDS011;51687;52.160;5.298;2022-12-11T01:28:05;118.72;;;49.58;;
43994;SDS011;51687;52.160;5.298;2022-12-11T01:30:33;100.65;;;46.75;;
43994;SDS011;51687;52.160;5.298;2022-12-11T01:33:01;114.35;;;50.80;;
43994;SDS011;51687;52.160;5.298;2022-12-11T01:35:28;112.00;;;49.72;;
43994;SDS011;51687;52.160;5.298;2022-12-11T01:37:54;105.28;;;47.95;;
43994;SDS011;51687;52.160;5.298;2022-12-11T01:40:21;107.40;;;50.13;;
43994;SDS011;51687;52.160;5.298;2022-12-11T01:42:48;100.80;;;49.28;;
43994;SDS011;51687;52.160;5.298;2022-12-11T01:45:27;105.78;;;49.92;;
43994;SDS011;51687;52.160;5.298;2022-12-11T01:50:27;106.28;;;48.55;;
43994;SDS011;51687;52.160;5.298;2022-12-11T01:52:56;114.97;;;49.55;;
43994;SDS011;51687;52.160;5.298;2022-12-11T01:55:23;98.10;;;47.65;;
43994;SDS011;51687;52.160;5.298;2022-12-11T01:57:50;94.97;;;47.72;;
43994;SDS011;51687;52.160;5.298;2022-12-11T02:00:18;96.72;;;48.72;;
43994;SDS011;51687;52.160;5.298;2022-12-11T02:02:45;99.05;;;48.22;;
43994;SDS011;51687;52.160;5.298;2022-12-11T02:05:12;95.50;;;48.00;;
43994;SDS011;51687;52.160;5.298;2022-12-11T02:07:41;99.60;;;48.95;;
43994;SDS011;51687;52.160;5.298;2022-12-11T02:10:13;95.60;;;48.00;;
43994;SDS011;51687;52.160;5.298;2022-12-11T02:12:42;95.90;;;49.22;;
43994;SDS011;51687;52.160;5.298;2022-12-11T02:20:46;88.78;;;46.10;;
43994;SDS011;51687;52.160;5.298;2022-12-11T02:23:50;90.18;;;46.13;;
43994;SDS011;51687;52.160;5.298;2022-12-11T02:29:11;84.97;;;46.28;;
43994;SDS011;51687;52.160;5.298;2022-12-11T02:31:45;92.43;;;46.05;;
43994;SDS011;51687;52.160;5.298;2022-12-11T02:37:04;84.63;;;45.47;;
43994;SDS011;51687;52.160;5.298;2022-12-11T02:39:35;89.13;;;46.28;;
43994;SDS011;51687;52.160;5.298;2022-12-11T02:42:05;89.25;;;46.10;;
43994;SDS011;51687;52.160;5.298;2022-12-11T02:44:33;83.55;;;45.92;;
43994;SDS011;51687;52.160;5.298;2022-12-11T02:47:02;81.15;;;44.72;;
43994;SDS011;51687;52.160;5.298;2022-12-11T02:49:31;78.40;;;44.70;;
43994;SDS011;51687;52.160;5.298;2022-12-11T02:51:59;81.32;;;45.53;;
43994;SDS011;51687;52.160;5.298;2022-12-11T02:54:30;80.20;;;44.85;;
43994;SDS011;51687;52.160;5.298;2022-12-11T02:57:08;75.10;;;44.38;;
43994;SDS011;51687;52.160;5.298;2022-12-11T02:59:42;71.90;;;41.80;;
43994;SDS011;51687;52.160;5.298;2022-12-11T03:04:41;66.88;;;40.08;;
43994;SDS011;51687;52.160;5.298;2022-12-11T03:07:11;75.90;;;43.22;;
43994;SDS011;51687;52.160;5.298;2022-12-11T03:09:46;66.38;;;41.10;;
43994;SDS011;51687;52.160;5.298;2022-12-11T03:12:14;69.70;;;41.23;;
43994;SDS011;51687;52.160;5.298;2022-12-11T03:14:46;67.13;;;40.53;;
43994;SDS011;51687;52.160;5.298;2022-12-11T03:22:38;67.15;;;41.53;;
43994;SDS011;51687;52.160;5.298;2022-12-11T03:25:12;70.78;;;42.60;;
43994;SDS011;51687;52.160;5.298;2022-12-11T03:28:02;63.13;;;40.33;;
43994;SDS011;51687;52.160;5.298;2022-12-11T03:30:34;56.38;;;38.33;;
43994;SDS011;51687;52.160;5.298;2022-12-11T03:33:09;60.83;;;38.53;;
43994;SDS011;51687;52.160;5.298;2022-12-11T03:35:44;59.13;;;38.55;;
43994;SDS011;51687;52.160;5.298;2022-12-11T03:38:16;54.85;;;37.65;;
43994;SDS011;51687;52.160;5.298;2022-12-11T03:40:49;53.70;;;36.58;;
43994;SDS011;51687;52.160;5.298;2022-12-11T03:43:19;53.75;;;37.10;;
43994;SDS011;51687;52.160;5.298;2022-12-11T03:45:47;54.95;;;37.33;;
43994;SDS011;51687;52.160;5.298;2022-12-11T03:48:16;56.80;;;37.88;;
43994;SDS011;51687;52.160;5.298;2022-12-11T03:50:45;53.22;;;37.67;;
43994;SDS011;51687;52.160;5.298;2022-12-11T03:53:13;54.20;;;37.10;;
43994;SDS011;51687;52.160;5.298;2022-12-11T03:55:41;59.92;;;38.95;;
43994;SDS011;51687;52.160;5.298;2022-12-11T03:58:08;53.83;;;38.20;;
43994;SDS011;51687;52.160;5.298;2022-12-11T04:00:35;42.38;;;31.63;;
43994;SDS011;51687;52.160;5.298;2022-12-11T04:03:02;39.50;;;32.72;;
43994;SDS011;51687;52.160;5.298;2022-12-11T04:05:46;47.63;;;33.67;;
43994;SDS011;51687;52.160;5.298;2022-12-11T04:08:15;38.97;;;32.22;;
43994;SDS011;51687;52.160;5.298;2022-12-11T04:10:46;38.03;;;31.15;;
43994;SDS011;51687;52.160;5.298;2022-12-11T04:13:13;42.92;;;32.20;;
43994;SDS011;51687;52.160;5.298;2022-12-11T04:15:40;48.83;;;33.40;;
43994;SDS011;51687;52.160;5.298;2022-12-11T04:18:07;44.85;;;33.00;;
43994;SDS011;51687;52.160;5.298;2022-12-11T04:20:54;44.65;;;32.67;;
43994;SDS011;51687;52.160;5.298;2022-12-11T04:23:40;41.30;;;32.70;;
43994;SDS011;51687;52.160;5.298;2022-12-11T04:26:25;45.50;;;33.80;;
43994;SDS011;51687;52.160;5.298;2022-12-11T04:28:52;41.15;;;31.48;;
43994;SDS011;51687;52.160;5.298;2022-12-11T04:31:20;45.58;;;33.53;;
43994;SDS011;51687;52.160;5.298;2022-12-11T04:33:48;47.70;;;35.50;;
43994;SDS011;51687;52.160;5.298;2022-12-11T04:36:15;47.60;;;35.60;;
43994;SDS011;51687;52.160;5.298;2022-12-11T04:38:42;48.97;;;34.80;;
43994;SDS011;51687;52.160;5.298;2022-12-11T04:41:10;45.83;;;35.58;;
43994;SDS011;51687;52.160;5.298;2022-12-11T04:43:39;47.97;;;35.72;;
43994;SDS011;51687;52.160;5.298;2022-12-11T04:46:11;41.22;;;33.20;;
43994;SDS011;51687;52.160;5.298;2022-12-11T04:48:40;45.05;;;35.05;;
43994;SDS011;51687;52.160;5.298;2022-12-11T04:51:07;38.97;;;32.63;;
43994;SDS011;51687;52.160;5.298;2022-12-11T04:53:35;42.15;;;33.80;;
43994;SDS011;51687;52.160;5.298;2022-12-11T04:56:06;43.25;;;34.17;;
43994;SDS011;51687;52.160;5.298;2022-12-11T04:58:34;41.45;;;32.90;;
43994;SDS011;51687;52.160;5.298;2022-12-11T05:01:09;43.03;;;34.03;;
43994;SDS011;51687;52.160;5.298;2022-12-11T05:03:41;40.78;;;32.72;;
43994;SDS011;51687;52.160;5.298;2022-12-11T05:06:08;41.67;;;34.38;;
43994;SDS011;51687;52.160;5.298;2022-12-11T05:08:36;42.15;;;33.80;;
43994;SDS011;51687;52.160;5.298;2022-12-11T05:11:06;39.53;;;33.70;;
43994;SDS011;51687;52.160;5.298;2022-12-11T05:13:35;41.53;;;33.58;;
43994;SDS011;51687;52.160;5.298;2022-12-11T05:16:03;42.22;;;34.28;;
43994;SDS011;51687;52.160;5.298;2022-12-11T05:18:31;39.67;;;34.00;;
43994;SDS011;51687;52.160;5.298;2022-12-11T05:21:02;41.92;;;34.25;;
43994;SDS011;51687;52.160;5.298;2022-12-11T05:23:30;39.80;;;33.60;;
43994;SDS011;51687;52.160;5.298;2022-12-11T05:25:59;39.30;;;33.25;;
43994;SDS011;51687;52.160;5.298;2022-12-11T05:28:31;38.88;;;32.58;;
43994;SDS011;51687;52.160;5.298;2022-12-11T05:31:00;39.35;;;34.90;;
43994;SDS011;51687;52.160;5.298;2022-12-11T05:33:30;39.75;;;31.38;;
43994;SDS011;51687;52.160;5.298;2022-12-11T05:35:57;41.88;;;33.10;;
43994;SDS011;51687;52.160;5.298;2022-12-11T05:38:23;39.30;;;33.33;;
43994;SDS011;51687;52.160;5.298;2022-12-11T05:41:09;38.10;;;31.77;;
43994;SDS011;51687;52.160;5.298;2022-12-11T05:43:38;39.83;;;33.47;;
43994;SDS011;51687;52.160;5.298;2022-12-11T05:46:06;42.13;;;32.97;;
43994;SDS011;51687;52.160;5.298;2022-12-11T05:48:35;42.25;;;33.08;;
43994;SDS011;51687;52.160;5.298;2022-12-11T05:51:03;38.97;;;34.20;;
43994;SDS011;51687;52.160;5.298;2022-12-11T05:53:31;40.78;;;32.40;;
43994;SDS011;51687;52.160;5.298;2022-12-11T05:56:05;34.17;;;30.63;;
43994;SDS011;51687;52.160;5.298;2022-12-11T05:58:39;35.38;;;30.92;;
43994;SDS011;51687;52.160;5.298;2022-12-11T06:01:08;34.17;;;30.48;;
43994;SDS011;51687;52.160;5.298;2022-12-11T06:03:36;37.75;;;30.42;;
43994;SDS011;51687;52.160;5.298;2022-12-11T06:06:04;37.20;;;31.73;;
43994;SDS011;51687;52.160;5.298;2022-12-11T06:08:32;35.75;;;31.85;;
43994;SDS011;51687;52.160;5.298;2022-12-11T06:10:59;37.90;;;32.20;;
43994;SDS011;51687;52.160;5.298;2022-12-11T06:13:27;40.10;;;32.00;;
43994;SDS011;51687;52.160;5.298;2022-12-11T06:15:54;36.78;;;32.03;;
43994;SDS011;51687;52.160;5.298;2022-12-11T06:18:21;36.70;;;31.63;;
43994;SDS011;51687;52.160;5.298;2022-12-11T06:20:47;35.83;;;31.52;;
43994;SDS011;51687;52.160;5.298;2022-12-11T06:23:14;42.97;;;32.65;;
43994;SDS011;51687;52.160;5.298;2022-12-11T06:25:41;41.15;;;32.33;;
43994;SDS011;51687;52.160;5.298;2022-12-11T06:28:07;39.83;;;33.50;;
43994;SDS011;51687;52.160;5.298;2022-12-11T06:30:34;45.40;;;33.60;;
43994;SDS011;51687;52.160;5.298;2022-12-11T06:33:04;38.90;;;32.47;;
43994;SDS011;51687;52.160;5.298;2022-12-11T06:35:31;43.10;;;33.00;;
43994;SDS011;51687;52.160;5.298;2022-12-11T06:38:06;45.83;;;33.58;;
43994;SDS011;51687;52.160;5.298;2022-12-11T06:40:33;41.28;;;33.08;;
43994;SDS011;51687;52.160;5.298;2022-12-11T06:43:00;39.50;;;32.30;;
43994;SDS011;51687;52.160;5.298;2022-12-11T06:45:27;43.40;;;33.78;;
43994;SDS011;51687;52.160;5.298;2022-12-11T06:47:55;43.00;;;34.67;;
43994;SDS011;51687;52.160;5.298;2022-12-11T06:50:21;50.28;;;34.25;;
43994;SDS011;51687;52.160;5.298;2022-12-11T06:52:48;44.22;;;33.72;;
43994;SDS011;51687;52.160;5.298;2022-12-11T06:55:15;41.92;;;33.72;;
43994;SDS011;51687;52.160;5.298;2022-12-11T06:57:41;42.67;;;34.55;;
43994;SDS011;51687;52.160;5.298;2022-12-11T07:00:08;44.53;;;33.97;;
43994;SDS011;51687;52.160;5.298;2022-12-11T07:02:35;47.40;;;36.15;;
43994;SDS011;51687;52.160;5.298;2022-12-11T07:05:02;44.47;;;35.03;;
43994;SDS011;51687;52.160;5.298;2022-12-11T07:07:29;46.95;;;35.70;;
43994;SDS011;51687;52.160;5.298;2022-12-11T07:09:56;49.10;;;35.88;;
43994;SDS011;51687;52.160;5.298;2022-12-11T07:12:31;46.03;;;34.33;;
43994;SDS011;51687;52.160;5.298;2022-12-11T07:14:57;46.90;;;35.95;;
43994;SDS011;51687;52.160;5.298;2022-12-11T07:17:24;47.80;;;35.88;;
43994;SDS011;51687;52.160;5.298;2022-12-11T07:19:51;48.00;;;35.90;;
43994;SDS011;51687;52.160;5.298;2022-12-11T07:22:17;45.58;;;35.05;;
43994;SDS011;51687;52.160;5.298;2022-12-11T07:24:44;48.92;;;36.15;;
43994;SDS011;51687;52.160;5.298;2022-12-11T07:27:11;46.15;;;35.50;;
43994;SDS011;51687;52.160;5.298;2022-12-11T07:29:38;48.25;;;36.40;;
43994;SDS011;51687;52.160;5.298;2022-12-11T07:32:04;51.75;;;36.95;;
43994;SDS011;51687;52.160;5.298;2022-12-11T07:34:31;48.67;;;38.05;;
43994;SDS011;51687;52.160;5.298;2022-12-11T07:36:58;52.35;;;38.92;;
43994;SDS011;51687;52.160;5.298;2022-12-11T07:39:25;50.22;;;37.38;;
43994;SDS011;51687;52.160;5.298;2022-12-11T07:41:53;53.63;;;37.92;;
43994;SDS011;51687;52.160;5.298;2022-12-11T07:44:20;51.90;;;36.80;;
43994;SDS011;51687;52.160;5.298;2022-12-11T07:46:47;53.78;;;37.95;;
43994;SDS011;51687;52.160;5.298;2022-12-11T07:49:13;49.15;;;37.13;;
43994;SDS011;51687;52.160;5.298;2022-12-11T07:51:40;52.95;;;38.47;;
43994;SDS011;51687;52.160;5.298;2022-12-11T07:54:09;51.42;;;35.63;;
43994;SDS011;51687;52.160;5.298;2022-12-11T07:56:42;45.72;;;34.83;;
43994;SDS011;51687;52.160;5.298;2022-12-11T07:59:15;49.85;;;37.35;;
43994;SDS011;51687;52.160;5.298;2022-12-11T08:01:41;55.53;;;38.90;;
43994;SDS011;51687;52.160;5.298;2022-12-11T08:04:09;47.80;;;36.85;;
43994;SDS011;51687;52.160;5.298;2022-12-11T08:06:38;53.80;;;36.17;;
43994;SDS011;51687;52.160;5.298;2022-12-11T08:09:07;55.33;;;39.58;;
43994;SDS011;51687;52.160;5.298;2022-12-11T08:11:38;52.45;;;38.08;;
43994;SDS011;51687;52.160;5.298;2022-12-11T08:14:05;53.83;;;41.25;;
43994;SDS011;51687;52.160;5.298;2022-12-11T08:16:33;50.08;;;38.92;;
43994;SDS011;51687;52.160;5.298;2022-12-11T08:19:00;50.80;;;39.15;;
43994;SDS011;51687;52.160;5.298;2022-12-11T08:21:27;61.80;;;44.92;;
43994;SDS011;51687;52.160;5.298;2022-12-11T08:23:54;50.63;;;40.03;;
43994;SDS011;51687;52.160;5.298;2022-12-11T08:26:23;52.50;;;39.65;;
43994;SDS011;51687;52.160;5.298;2022-12-11T08:28:51;52.40;;;40.40;;
43994;SDS011;51687;52.160;5.298;2022-12-11T08:31:19;48.85;;;39.72;;
43994;SDS011;51687;52.160;5.298;2022-12-11T08:33:47;52.20;;;40.53;;
43994;SDS011;51687;52.160;5.298;2022-12-11T08:36:15;54.92;;;41.20;;
43994;SDS011;51687;52.160;5.298;2022-12-11T08:38:44;51.33;;;41.00;;
43994;SDS011;51687;52.160;5.298;2022-12-11T08:41:19;52.08;;;40.05;;
43994;SDS011;51687;52.160;5.298;2022-12-11T08:43:52;49.88;;;39.92;;
43994;SDS011;51687;52.160;5.298;2022-12-11T08:46:21;51.90;;;41.40;;
43994;SDS011;51687;52.160;5.298;2022-12-11T08:48:50;48.95;;;38.00;;
43994;SDS011;51687;52.160;5.298;2022-12-11T08:51:19;49.55;;;39.90;;
43994;SDS011;51687;52.160;5.298;2022-12-11T08:53:48;55.65;;;43.55;;
43994;SDS011;51687;52.160;5.298;2022-12-11T08:56:18;48.85;;;40.17;;
43994;SDS011;51687;52.160;5.298;2022-12-11T08:58:46;53.80;;;42.50;;
43994;SDS011;51687;52.160;5.298;2022-12-11T09:01:23;53.92;;;41.45;;
43994;SDS011;51687;52.160;5.298;2022-12-11T09:03:52;48.90;;;40.47;;
43994;SDS011;51687;52.160;5.298;2022-12-11T09:08:47;50.78;;;39.05;;
43994;SDS011;51687;52.160;5.298;2022-12-11T09:11:36;56.15;;;40.13;;
43994;SDS011;51687;52.160;5.298;2022-12-11T09:14:03;49.50;;;40.13;;
43994;SDS011;51687;52.160;5.298;2022-12-11T09:16:33;50.00;;;39.55;;
43994;SDS011;51687;52.160;5.298;2022-12-11T09:19:03;54.40;;;40.92;;
43994;SDS011;51687;52.160;5.298;2022-12-11T09:21:29;55.42;;;41.15;;
43994;SDS011;51687;52.160;5.298;2022-12-11T09:23:57;53.72;;;42.67;;
43994;SDS011;51687;52.160;5.298;2022-12-11T09:26:27;51.20;;;40.40;;
43994;SDS011;51687;52.160;5.298;2022-12-11T09:28:56;53.03;;;39.60;;
43994;SDS011;51687;52.160;5.298;2022-12-11T09:31:27;53.95;;;42.35;;
43994;SDS011;51687;52.160;5.298;2022-12-11T09:33:57;45.78;;;39.20;;
43994;SDS011;51687;52.160;5.298;2022-12-11T09:36:26;45.42;;;37.80;;
43994;SDS011;51687;52.160;5.298;2022-12-11T09:38:53;43.88;;;36.85;;
43994;SDS011;51687;52.160;5.298;2022-12-11T09:43:48;44.13;;;35.75;;
43994;SDS011;51687;52.160;5.298;2022-12-11T09:46:24;50.00;;;37.00;;
43994;SDS011;51687;52.160;5.298;2022-12-11T09:48:59;51.75;;;39.03;;
43994;SDS011;51687;52.160;5.298;2022-12-11T09:51:33;44.60;;;37.63;;
43994;SDS011;51687;52.160;5.298;2022-12-11T09:54:05;50.13;;;37.97;;
43994;SDS011;51687;52.160;5.298;2022-12-11T09:56:32;46.30;;;37.35;;
43994;SDS011;51687;52.160;5.298;2022-12-11T09:59:12;49.22;;;39.08;;
43994;SDS011;51687;52.160;5.298;2022-12-11T10:04:57;53.22;;;41.10;;
43994;SDS011;51687;52.160;5.298;2022-12-11T10:13:02;43.88;;;35.45;;
43994;SDS011;51687;52.160;5.298;2022-12-11T10:18:18;43.72;;;36.17;;
43994;SDS011;51687;52.160;5.298;2022-12-11T10:20:49;39.45;;;34.72;;
43994;SDS011;51687;52.160;5.298;2022-12-11T10:23:17;41.13;;;34.08;;
43994;SDS011;51687;52.160;5.298;2022-12-11T10:25:57;45.33;;;34.60;;
43994;SDS011;51687;52.160;5.298;2022-12-11T10:28:33;40.45;;;33.65;;
43994;SDS011;51687;52.160;5.298;2022-12-11T10:31:17;38.78;;;32.53;;
43994;SDS011;51687;52.160;5.298;2022-12-11T10:34:11;37.28;;;31.60;;
43994;SDS011;51687;52.160;5.298;2022-12-11T10:36:43;37.67;;;32.53;;
43994;SDS011;51687;52.160;5.298;2022-12-11T10:39:11;37.67;;;31.88;;
43994;SDS011;51687;52.160;5.298;2022-12-11T10:41:45;40.92;;;33.22;;
43994;SDS011;51687;52.160;5.298;2022-12-11T10:44:31;33.25;;;29.75;;
43994;SDS011;51687;52.160;5.298;2022-12-11T10:47:11;36.85;;;31.08;;
43994;SDS011;51687;52.160;5.298;2022-12-11T10:50:23;36.55;;;30.73;;
43994;SDS011;51687;52.160;5.298;2022-12-11T10:52:30;35.55;;;31.80;;
43994;SDS011;51687;52.160;5.298;2022-12-11T10:55:05;39.88;;;31.23;;
43994;SDS011;51687;52.160;5.298;2022-12-11T10:57:42;35.72;;;31.83;;
43994;SDS011;51687;52.160;5.298;2022-12-11T11:00:25;34.97;;;31.25;;
43994;SDS011;51687;52.160;5.298;2022-12-11T11:02:57;33.55;;;29.98;;
43994;SDS011;51687;52.160;5.298;2022-12-11T11:05:29;37.10;;;30.83;;
43994;SDS011;51687;52.160;5.298;2022-12-11T11:08:11;40.30;;;32.03;;
43994;SDS011;51687;52.160;5.298;2022-12-11T11:10:59;33.75;;;30.08;;
43994;SDS011;51687;52.160;5.298;2022-12-11T11:13:27;35.25;;;31.20;;
43994;SDS011;51687;52.160;5.298;2022-12-11T11:15:59;35.47;;;30.20;;
43994;SDS011;51687;52.160;5.298;2022-12-11T11:18:28;32.20;;;28.70;;
43994;SDS011;51687;52.160;5.298;2022-12-11T11:20:57;32.80;;;29.25;;
43994;SDS011;51687;52.160;5.298;2022-12-11T11:23:24;30.88;;;27.77;;
43994;SDS011;51687;52.160;5.298;2022-12-11T11:25:52;33.85;;;29.60;;
43994;SDS011;51687;52.160;5.298;2022-12-11T11:28:30;31.60;;;28.25;;
43994;SDS011;51687;52.160;5.298;2022-12-11T11:31:02;31.10;;;28.08;;
43994;SDS011;51687;52.160;5.298;2022-12-11T11:33:35;30.88;;;27.52;;
43994;SDS011;51687;52.160;5.298;2022-12-11T11:36:18;30.58;;;27.30;;
43994;SDS011;51687;52.160;5.298;2022-12-11T11:44:30;31.13;;;26.60;;
43994;SDS011;51687;52.160;5.298;2022-12-11T11:47:10;28.77;;;26.00;;
43994;SDS011;51687;52.160;5.298;2022-12-11T11:52:55;72.68;;;44.33;;
43994;SDS011;51687;52.160;5.298;2022-12-11T11:58:15;28.58;;;25.48;;
43994;SDS011;51687;52.160;5.298;2022-12-11T12:00:48;27.45;;;24.80;;
43994;SDS011;51687;52.160;5.298;2022-12-11T12:03:15;28.05;;;25.08;;
43994;SDS011;51687;52.160;5.298;2022-12-11T12:05:53;29.75;;;26.70;;
43994;SDS011;51687;52.160;5.298;2022-12-11T12:11:29;27.48;;;24.65;;
43994;SDS011;51687;52.160;5.298;2022-12-11T12:14:37;26.90;;;24.30;;
43994;SDS011;51687;52.160;5.298;2022-12-11T12:17:21;33.10;;;29.42;;
43994;SDS011;51687;52.160;5.298;2022-12-11T12:23:30;27.70;;;24.77;;
43994;SDS011;51687;52.160;5.298;2022-12-11T12:34:02;28.85;;;25.83;;
43994;SDS011;51687;52.160;5.298;2022-12-11T12:36:42;27.73;;;24.73;;
43994;SDS011;51687;52.160;5.298;2022-12-11T12:42:28;27.17;;;24.58;;
43994;SDS011;51687;52.160;5.298;2022-12-11T12:47:40;27.25;;;23.58;;
43994;SDS011;51687;52.160;5.298;2022-12-11T12:50:16;25.98;;;23.25;;
43994;SDS011;51687;52.160;5.298;2022-12-11T12:52:45;26.30;;;23.65;;
43994;SDS011;51687;52.160;5.298;2022-12-11T12:57:46;28.65;;;25.58;;
43994;SDS011;51687;52.160;5.298;2022-12-11T13:00:31;28.02;;;25.25;;
43994;SDS011;51687;52.160;5.298;2022-12-11T13:08:46;33.22;;;25.27;;
43994;SDS011;51687;52.160;5.298;2022-12-11T13:11:14;29.77;;;24.58;;
43994;SDS011;51687;52.160;5.298;2022-12-11T13:13:45;26.55;;;23.70;;
43994;SDS011;51687;52.160;5.298;2022-12-11T13:16:24;26.02;;;23.45;;
43994;SDS011;51687;52.160;5.298;2022-12-11T13:18:58;26.95;;;24.08;;
43994;SDS011;51687;52.160;5.298;2022-12-11T13:21:26;32.65;;;26.92;;
43994;SDS011;51687;52.160;5.298;2022-12-11T13:24:24;31.08;;;26.58;;
43994;SDS011;51687;52.160;5.298;2022-12-11T13:26:53;26.33;;;23.50;;
43994;SDS011;51687;52.160;5.298;2022-12-11T13:29:27;37.05;;;28.08;;
43994;SDS011;51687;52.160;5.298;2022-12-11T13:32:01;34.47;;;26.80;;
43994;SDS011;51687;52.160;5.298;2022-12-11T13:34:54;33.97;;;25.90;;
43994;SDS011;51687;52.160;5.298;2022-12-11T13:37:29;31.10;;;25.75;;
43994;SDS011;51687;52.160;5.298;2022-12-11T13:40:03;31.85;;;26.17;;
43994;SDS011;51687;52.160;5.298;2022-12-11T13:42:35;42.58;;;29.27;;
43994;SDS011;51687;52.160;5.298;2022-12-11T13:45:17;30.60;;;25.63;;
43994;SDS011;51687;52.160;5.298;2022-12-11T13:47:48;34.35;;;27.73;;
43994;SDS011;51687;52.160;5.298;2022-12-11T13:50:37;32.08;;;27.38;;
43994;SDS011;51687;52.160;5.298;2022-12-11T13:53:02;34.88;;;29.33;;
43994;SDS011;51687;52.160;5.298;2022-12-11T13:55:31;33.72;;;28.23;;
43994;SDS011;51687;52.160;5.298;2022-12-11T13:57:59;33.20;;;28.42;;
43994;SDS011;51687;52.160;5.298;2022-12-11T14:00:27;37.83;;;28.27;;
43994;SDS011;51687;52.160;5.298;2022-12-11T14:02:58;33.72;;;28.15;;
43994;SDS011;51687;52.160;5.298;2022-12-11T14:05:30;68.13;;;45.50;;
43994;SDS011;51687;52.160;5.298;2022-12-11T14:07:57;39.78;;;29.25;;
43994;SDS011;51687;52.160;5.298;2022-12-11T14:10:28;34.75;;;27.23;;
43994;SDS011;51687;52.160;5.298;2022-12-11T14:13:02;35.97;;;27.90;;
43994;SDS011;51687;52.160;5.298;2022-12-11T14:15:31;32.72;;;27.63;;
43994;SDS011;51687;52.160;5.298;2022-12-11T14:18:00;41.72;;;30.02;;
43994;SDS011;51687;52.160;5.298;2022-12-11T14:20:29;45.90;;;30.70;;
43994;SDS011;51687;52.160;5.298;2022-12-11T14:23:04;35.50;;;29.48;;
43994;SDS011;51687;52.160;5.298;2022-12-11T14:25:32;36.38;;;29.85;;
43994;SDS011;51687;52.160;5.298;2022-12-11T14:27:59;55.80;;;40.58;;
43994;SDS011;51687;52.160;5.298;2022-12-11T14:30:27;42.45;;;32.60;;
43994;SDS011;51687;52.160;5.298;2022-12-11T14:32:57;41.05;;;30.45;;
43994;SDS011;51687;52.160;5.298;2022-12-11T14:35:34;42.15;;;31.92;;
43994;SDS011;51687;52.160;5.298;2022-12-11T14:38:18;53.13;;;34.17;;
43994;SDS011;51687;52.160;5.298;2022-12-11T14:40:53;47.30;;;34.45;;
43994;SDS011;51687;52.160;5.298;2022-12-11T14:43:51;49.20;;;35.20;;
43994;SDS011;51687;52.160;5.298;2022-12-11T14:46:32;43.63;;;32.55;;
43994;SDS011;51687;52.160;5.298;2022-12-11T14:49:07;40.08;;;31.52;;
43994;SDS011;51687;52.160;5.298;2022-12-11T14:51:44;39.78;;;28.00;;
43994;SDS011;51687;52.160;5.298;2022-12-11T14:54:17;40.53;;;30.35;;
43994;SDS011;51687;52.160;5.298;2022-12-11T14:56:54;42.95;;;31.05;;
43994;SDS011;51687;52.160;5.298;2022-12-11T14:59:23;35.63;;;28.33;;
43994;SDS011;51687;52.160;5.298;2022-12-11T15:02:01;37.95;;;29.30;;
43994;SDS011;51687;52.160;5.298;2022-12-11T15:07:22;39.35;;;28.25;;
43994;SDS011;51687;52.160;5.298;2022-12-11T15:09:50;39.13;;;28.77;;
43994;SDS011;51687;52.160;5.298;2022-12-11T15:12:17;38.28;;;28.70;;
43994;SDS011;51687;52.160;5.298;2022-12-11T15:14:46;35.65;;;27.55;;
43994;SDS011;51687;52.160;5.298;2022-12-11T15:17:16;39.22;;;28.20;;
43994;SDS011;51687;52.160;5.298;2022-12-11T15:19:48;34.03;;;27.73;;
43994;SDS011;51687;52.160;5.298;2022-12-11T15:22:17;32.47;;;26.83;;
43994;SDS011;51687;52.160;5.298;2022-12-11T15:24:48;34.08;;;27.25;;
43994;SDS011;51687;52.160;5.298;2022-12-11T15:32:47;31.17;;;26.45;;
43994;SDS011;51687;52.160;5.298;2022-12-11T15:35:24;35.90;;;27.42;;
43994;SDS011;51687;52.160;5.298;2022-12-11T15:40:19;42.35;;;30.38;;
43994;SDS011;51687;52.160;5.298;2022-12-11T15:42:46;57.47;;;38.58;;
43994;SDS011;51687;52.160;5.298;2022-12-11T15:45:15;64.00;;;41.47;;
43994;SDS011;51687;52.160;5.298;2022-12-11T15:47:43;66.55;;;41.80;;
43994;SDS011;51687;52.160;5.298;2022-12-11T15:50:15;68.95;;;45.03;;
43994;SDS011;51687;52.160;5.298;2022-12-11T15:52:43;62.42;;;40.03;;
43994;SDS011;51687;52.160;5.298;2022-12-11T15:55:11;53.10;;;35.95;;
43994;SDS011;51687;52.160;5.298;2022-12-11T15:57:46;68.38;;;45.85;;
43994;SDS011;51687;52.160;5.298;2022-12-11T16:00:22;62.70;;;41.55;;
43994;SDS011;51687;52.160;5.298;2022-12-11T16:02:49;49.50;;;37.33;;
43994;SDS011;51687;52.160;5.298;2022-12-11T16:05:17;46.28;;;31.88;;
43994;SDS011;51687;52.160;5.298;2022-12-11T16:07:44;54.00;;;38.35;;
43994;SDS011;51687;52.160;5.298;2022-12-11T16:10:13;48.60;;;35.33;;
43994;SDS011;51687;52.160;5.298;2022-12-11T16:12:41;51.00;;;35.13;;
43994;SDS011;51687;52.160;5.298;2022-12-11T16:15:09;42.50;;;33.00;;